createdAt,value
2022-11-30T00:00:58.681Z,23.88
2022-11-30T00:03:26.036Z,27.80
2022-11-30T00:05:52.744Z,23.90
2022-11-30T00:08:19.549Z,24.48
2022-11-30T00:10:45.934Z,27.80
2022-11-30T00:13:12.365Z,29.05
2022-11-30T00:15:39.170Z,21.80
2022-11-30T00:18:05.655Z,22.25
2022-11-30T00:20:32.421Z,27.42
2022-11-30T00:22:58.875Z,23.88
2022-11-30T00:25:25.847Z,24.77
2022-11-30T00:27:52.406Z,26.35
2022-11-30T00:30:19.030Z,24.67
2022-11-30T00:32:45.886Z,26.13
2022-11-30T00:35:12.531Z,26.90
2022-11-30T00:37:39.367Z,23.73
2022-11-30T00:40:07.105Z,22.63
2022-11-30T00:42:33.489Z,22.50
2022-11-30T00:45:00.217Z,23.08
2022-11-30T00:47:26.624Z,23.15
2022-11-30T00:49:53.019Z,24.05
2022-11-30T00:52:19.418Z,21.92
2022-11-30T00:54:46.305Z,22.95
2022-11-30T00:57:13.032Z,21.88
2022-11-30T00:59:39.551Z,20.67
2022-11-30T01:02:06.235Z,25.58
2022-11-30T01:04:32.819Z,19.65
2022-11-30T01:06:59.373Z,20.10
2022-11-30T01:09:25.834Z,21.73
2022-11-30T01:11:52.431Z,21.25
2022-11-30T01:14:19.003Z,21.73
2022-11-30T01:16:45.658Z,17.95
2022-11-30T01:19:12.118Z,21.33
2022-11-30T01:21:38.532Z,21.63
2022-11-30T01:24:06.377Z,21.00
2022-11-30T01:26:32.908Z,20.02
2022-11-30T01:28:59.337Z,24.38
2022-11-30T01:31:25.891Z,20.60
2022-11-30T01:33:55.082Z,19.67
2022-11-30T01:36:26.283Z,23.38
2022-11-30T01:38:55.516Z,20.33
2022-11-30T01:41:25.230Z,21.08
2022-11-30T01:44:19.593Z,26.33
2022-11-30T01:46:56.397Z,24.40
2022-11-30T01:49:30.351Z,20.17
2022-11-30T01:52:15.144Z,27.40
2022-11-30T01:54:47.631Z,23.65
2022-11-30T01:57:24.258Z,25.10
2022-11-30T01:59:53.038Z,22.30
2022-11-30T02:02:26.663Z,21.65
2022-11-30T02:07:21.360Z,23.88
2022-11-30T02:09:47.800Z,21.13
2022-11-30T02:12:49.538Z,24.05
2022-11-30T02:15:21.802Z,21.85
2022-11-30T02:17:58.131Z,21.83
2022-11-30T02:20:33.083Z,23.65
2022-11-30T02:23:17.409Z,26.05
2022-11-30T02:25:59.489Z,23.05
2022-11-30T02:28:44.363Z,22.48
2022-11-30T02:31:18.980Z,25.10
2022-11-30T02:33:47.386Z,24.52
2022-11-30T02:36:14.084Z,27.83
2022-11-30T02:38:41.778Z,23.42
2022-11-30T02:41:08.550Z,21.10
2022-11-30T02:43:35.790Z,23.48
2022-11-30T02:46:16.386Z,27.80
2022-11-30T02:48:49.961Z,22.88
2022-11-30T02:51:22.324Z,22.70
2022-11-30T02:53:49.312Z,24.33
2022-11-30T02:56:17.922Z,23.73
2022-11-30T02:58:44.510Z,24.52
2022-11-30T03:01:10.969Z,21.35
2022-11-30T03:03:37.411Z,21.33
2022-11-30T03:06:03.990Z,23.33
2022-11-30T03:08:30.357Z,24.52
2022-11-30T03:10:56.771Z,22.30
2022-11-30T03:13:23.173Z,28.23
2022-11-30T03:15:49.593Z,22.52
2022-11-30T03:18:16.084Z,19.00
2022-11-30T03:20:42.899Z,24.00
2022-11-30T03:23:09.473Z,22.08
2022-11-30T03:25:35.884Z,22.63
2022-11-30T03:28:02.703Z,23.35
2022-11-30T03:30:29.250Z,25.83
2022-11-30T03:32:55.665Z,23.75
2022-11-30T03:35:22.074Z,21.25
2022-11-30T03:37:48.495Z,22.05
2022-11-30T03:40:15.049Z,25.67
2022-11-30T03:42:41.500Z,22.13
2022-11-30T03:45:08.114Z,24.08
2022-11-30T03:47:34.539Z,23.00
2022-11-30T03:50:00.963Z,20.52
2022-11-30T03:52:27.385Z,24.92
2022-11-30T03:54:53.900Z,22.10
2022-11-30T03:57:20.382Z,24.92
2022-11-30T03:59:47.031Z,22.52
2022-11-30T04:02:13.560Z,22.70
2022-11-30T04:04:40.022Z,26.65
2022-11-30T04:07:06.438Z,27.58
2022-11-30T04:09:33.029Z,22.42
2022-11-30T04:11:59.666Z,33.20
2022-11-30T04:14:26.083Z,21.50
2022-11-30T04:16:52.509Z,21.30
2022-11-30T04:19:18.927Z,22.25
2022-11-30T04:21:45.365Z,22.13
2022-11-30T04:24:11.798Z,21.33
2022-11-30T04:26:38.324Z,22.27
2022-11-30T04:29:05.251Z,24.08
2022-11-30T04:31:31.741Z,23.55
2022-11-30T04:33:58.170Z,26.77
2022-11-30T04:36:24.911Z,23.95
2022-11-30T04:38:51.335Z,24.30
2022-11-30T04:41:17.708Z,21.48
2022-11-30T04:43:44.094Z,24.25
2022-11-30T04:46:10.761Z,26.38
2022-11-30T04:48:37.211Z,22.92
2022-11-30T04:51:06.095Z,22.77
2022-11-30T04:53:33.673Z,25.88
2022-11-30T04:56:07.889Z,24.35
2022-11-30T04:58:35.112Z,24.40
2022-11-30T05:01:01.572Z,21.42
2022-11-30T05:03:27.971Z,23.38
2022-11-30T05:05:54.350Z,24.80
2022-11-30T05:08:20.746Z,22.83
2022-11-30T05:10:53.235Z,23.90
2022-11-30T05:13:20.315Z,23.42
2022-11-30T05:15:47.427Z,25.65
2022-11-30T05:18:15.809Z,26.58
2022-11-30T05:20:42.206Z,22.45
2022-11-30T05:23:08.752Z,20.10
2022-11-30T05:25:35.234Z,25.80
2022-11-30T05:28:01.735Z,18.92
2022-11-30T05:30:28.101Z,24.60
2022-11-30T05:32:54.499Z,27.95
2022-11-30T05:35:20.921Z,24.95
2022-11-30T05:37:47.298Z,20.13
2022-11-30T05:40:13.776Z,23.50
2022-11-30T05:42:40.447Z,20.85
2022-11-30T05:45:07.274Z,26.98
2022-11-30T05:47:33.732Z,26.02
2022-11-30T05:50:00.223Z,23.90
2022-11-30T05:52:26.648Z,24.30
2022-11-30T05:54:53.024Z,25.63
2022-11-30T05:57:19.700Z,26.83
2022-11-30T05:59:46.121Z,26.05
2022-11-30T06:02:12.584Z,21.08
2022-11-30T06:04:39.022Z,22.63
2022-11-30T06:07:05.707Z,20.88
2022-11-30T06:09:32.097Z,21.20
2022-11-30T06:11:58.615Z,29.15
2022-11-30T06:14:25.088Z,22.02
2022-11-30T06:16:51.524Z,22.60
2022-11-30T06:19:17.942Z,27.00
2022-11-30T06:21:44.351Z,26.27
2022-11-30T06:24:10.842Z,22.90
2022-11-30T06:26:37.235Z,22.38
2022-11-30T06:29:03.679Z,25.05
2022-11-30T06:31:31.179Z,24.98
2022-11-30T06:33:58.357Z,24.15
2022-11-30T06:36:25.068Z,22.70
2022-11-30T06:38:51.893Z,25.88
2022-11-30T06:41:18.615Z,21.60
2022-11-30T06:43:45.134Z,22.45
2022-11-30T06:46:11.658Z,26.55
2022-11-30T06:48:38.206Z,22.83
2022-11-30T06:51:06.857Z,27.92
2022-11-30T06:53:33.373Z,24.70
2022-11-30T06:56:09.446Z,24.02
2022-11-30T06:58:37.729Z,28.42
2022-11-30T07:01:05.504Z,24.08
2022-11-30T07:03:32.194Z,24.65
2022-11-30T07:05:58.799Z,25.05
2022-11-30T07:08:25.401Z,23.58
2022-11-30T07:10:51.931Z,23.13
2022-11-30T07:13:19.396Z,23.58
2022-11-30T07:15:46.425Z,26.20
2022-11-30T07:18:13.016Z,27.80
2022-11-30T07:20:39.599Z,26.00
2022-11-30T07:23:25.655Z,28.98
2022-11-30T07:26:09.665Z,24.50
2022-11-30T07:31:39.396Z,27.70
2022-11-30T07:34:08.177Z,27.55
2022-11-30T07:36:35.950Z,27.45
2022-11-30T07:39:03.977Z,29.67
2022-11-30T07:41:30.461Z,29.60
2022-11-30T07:43:56.881Z,25.47
2022-11-30T07:46:23.337Z,29.63
2022-11-30T07:48:49.814Z,25.60
2022-11-30T07:51:19.586Z,27.52
2022-11-30T07:53:46.494Z,24.55
2022-11-30T07:56:15.616Z,34.85
2022-11-30T07:58:42.832Z,25.80
2022-11-30T08:01:12.454Z,32.50
2022-11-30T08:03:39.378Z,29.65
2022-11-30T08:06:09.132Z,33.92
2022-11-30T08:08:42.410Z,30.15
2022-11-30T08:11:12.301Z,29.52
2022-11-30T08:13:39.160Z,27.73
2022-11-30T08:16:08.500Z,28.45
2022-11-30T08:18:35.167Z,28.63
2022-11-30T08:21:04.062Z,28.42
2022-11-30T08:23:57.340Z,26.98
2022-11-30T08:26:30.109Z,28.97
2022-11-30T08:28:58.110Z,33.17
2022-11-30T08:31:30.955Z,31.90
2022-11-30T08:34:00.057Z,26.50
2022-11-30T08:36:28.438Z,24.83
2022-11-30T08:38:57.493Z,33.35
2022-11-30T08:41:24.312Z,22.50
2022-11-30T08:43:51.837Z,19.13
2022-11-30T08:49:20.904Z,25.58
2022-11-30T08:54:35.754Z,24.30
2022-11-30T08:57:02.397Z,19.70
2022-11-30T08:59:31.253Z,19.95
2022-11-30T09:01:57.693Z,20.83
2022-11-30T09:04:24.135Z,19.35
2022-11-30T09:06:50.909Z,17.83
2022-11-30T09:09:17.358Z,19.98
2022-11-30T09:11:43.776Z,17.67
2022-11-30T09:14:10.580Z,19.90
2022-11-30T09:16:36.995Z,20.15
2022-11-30T09:19:03.567Z,22.20
2022-11-30T09:21:30.593Z,18.20
2022-11-30T09:23:57.079Z,22.48
2022-11-30T09:26:25.381Z,18.95
2022-11-30T09:28:53.484Z,19.80
2022-11-30T09:31:24.589Z,21.45
2022-11-30T09:33:52.103Z,20.27
2022-11-30T09:36:20.866Z,21.05
2022-11-30T09:38:48.326Z,18.23
2022-11-30T09:41:23.536Z,18.08
2022-11-30T09:43:57.427Z,16.95
2022-11-30T09:46:32.442Z,16.05
2022-11-30T09:49:03.747Z,17.65
2022-11-30T09:51:46.218Z,20.17
2022-11-30T09:54:20.546Z,19.05
2022-11-30T09:56:47.216Z,18.33
2022-11-30T09:59:19.754Z,17.88
2022-11-30T10:01:52.037Z,19.25
2022-11-30T10:04:25.878Z,19.58
2022-11-30T10:07:14.363Z,18.73
2022-11-30T10:13:13.603Z,18.75
2022-11-30T10:15:54.469Z,17.10
2022-11-30T10:18:36.175Z,18.73
2022-11-30T10:21:33.088Z,17.83
2022-11-30T10:24:10.950Z,17.10
2022-11-30T10:26:40.472Z,18.77
2022-11-30T10:29:13.464Z,17.35
2022-11-30T10:31:42.439Z,21.80
2022-11-30T10:34:20.531Z,19.77
2022-11-30T10:36:56.373Z,24.73
2022-11-30T10:39:39.060Z,16.75
2022-11-30T10:42:31.371Z,21.60
2022-11-30T10:45:10.984Z,20.88
2022-11-30T10:47:46.165Z,18.80
2022-11-30T10:50:17.320Z,21.48
2022-11-30T10:52:49.069Z,20.38
2022-11-30T10:55:21.281Z,20.08
2022-11-30T10:57:51.032Z,22.63
2022-11-30T11:00:18.255Z,22.65
2022-11-30T11:02:47.860Z,23.63
2022-11-30T11:05:28.257Z,21.52
2022-11-30T11:08:04.720Z,22.98
2022-11-30T11:10:42.129Z,21.00
2022-11-30T11:13:16.848Z,24.73
2022-11-30T11:15:57.781Z,20.75
2022-11-30T11:18:26.676Z,23.50
2022-11-30T11:21:04.366Z,24.15
2022-11-30T11:23:39.911Z,21.60
2022-11-30T11:26:18.549Z,25.23
2022-11-30T11:28:47.797Z,22.98
2022-11-30T11:31:35.655Z,23.80
2022-11-30T11:34:03.466Z,23.45
2022-11-30T11:36:32.439Z,21.33
2022-11-30T11:39:00.515Z,21.02
2022-11-30T11:41:38.775Z,23.75
2022-11-30T11:44:11.084Z,23.00
2022-11-30T11:46:52.450Z,22.23
2022-11-30T11:49:24.024Z,23.83
2022-11-30T11:52:19.863Z,20.58
2022-11-30T11:55:05.387Z,20.23
2022-11-30T11:57:49.579Z,30.65
2022-11-30T12:00:19.070Z,22.98
2022-11-30T12:02:55.044Z,20.95
2022-11-30T12:05:27.408Z,22.42
2022-11-30T12:08:10.994Z,26.42
2022-11-30T12:11:08.338Z,23.02
2022-11-30T12:13:39.574Z,29.77
2022-11-30T12:16:12.190Z,29.20
2022-11-30T12:19:03.454Z,36.38
2022-11-30T12:22:01.841Z,31.67
2022-11-30T12:25:04.384Z,23.98
2022-11-30T12:27:43.594Z,27.63
2022-11-30T12:30:25.075Z,25.40
2022-11-30T12:33:20.059Z,25.98
2022-11-30T12:36:13.085Z,27.20
2022-11-30T12:38:59.168Z,24.95
2022-11-30T12:41:53.226Z,24.33
2022-11-30T12:44:53.757Z,24.63
2022-11-30T12:47:38.477Z,23.27
2022-11-30T12:50:28.080Z,26.77
2022-11-30T12:53:16.032Z,24.52
2022-11-30T12:55:54.176Z,23.48
2022-11-30T12:58:40.618Z,22.55
2022-11-30T13:01:13.154Z,23.00
2022-11-30T13:03:46.328Z,27.17
2022-11-30T13:06:18.865Z,27.23
2022-11-30T13:08:55.183Z,27.10
2022-11-30T13:11:28.886Z,24.85
2022-11-30T13:16:25.389Z,22.35
2022-11-30T13:18:59.263Z,23.90
2022-11-30T13:21:40.904Z,21.00
2022-11-30T13:24:23.793Z,24.15
2022-11-30T13:27:01.566Z,23.55
2022-11-30T13:29:49.189Z,23.13
2022-11-30T13:32:48.977Z,24.65
2022-11-30T13:35:28.917Z,26.13
2022-11-30T13:41:05.322Z,30.55
2022-11-30T13:43:36.542Z,26.65
2022-11-30T13:46:14.589Z,27.40
2022-11-30T13:48:43.373Z,27.80
2022-11-30T13:51:11.144Z,28.15
2022-11-30T13:53:39.205Z,30.10
2022-11-30T13:56:33.433Z,31.20
2022-11-30T14:02:33.506Z,30.40
2022-11-30T14:05:21.953Z,31.80
2022-11-30T14:08:00.652Z,29.85
2022-11-30T14:10:42.194Z,31.20
2022-11-30T14:13:09.279Z,28.50
2022-11-30T14:15:38.727Z,30.50
2022-11-30T14:18:21.660Z,34.08
2022-11-30T14:21:02.306Z,32.55
2022-11-30T14:23:44.269Z,34.20
2022-11-30T14:26:17.505Z,35.83
2022-11-30T14:28:50.138Z,36.78
2022-11-30T14:31:21.230Z,35.67
2022-11-30T14:33:53.325Z,36.00
2022-11-30T14:36:21.780Z,36.60
2022-11-30T14:38:48.606Z,36.00
2022-11-30T14:41:25.472Z,41.45
2022-11-30T14:44:13.581Z,38.88
2022-11-30T14:46:40.373Z,34.65
2022-11-30T14:49:18.559Z,38.45
2022-11-30T14:51:49.553Z,36.65
2022-11-30T14:54:33.954Z,36.20
2022-11-30T14:57:16.008Z,36.55
2022-11-30T14:59:48.946Z,35.80
2022-11-30T15:02:23.067Z,40.33
2022-11-30T15:04:53.104Z,38.95
2022-11-30T15:07:20.105Z,37.53
2022-11-30T15:09:50.128Z,39.28
2022-11-30T15:12:22.368Z,43.30
2022-11-30T15:15:14.774Z,37.97
2022-11-30T15:17:49.100Z,40.33
2022-11-30T15:20:47.639Z,41.47
2022-11-30T15:23:15.168Z,39.15
2022-11-30T15:25:59.185Z,44.83
2022-11-30T15:31:03.913Z,45.28
2022-11-30T15:33:50.992Z,42.85
2022-11-30T15:36:34.111Z,40.28
2022-11-30T15:39:06.639Z,41.83
2022-11-30T15:41:35.041Z,40.22
2022-11-30T15:44:04.558Z,36.63
2022-11-30T15:46:46.010Z,41.78
2022-11-30T15:49:12.663Z,42.22
2022-11-30T15:51:41.640Z,42.85
2022-11-30T15:54:08.155Z,38.83
2022-11-30T15:56:34.724Z,43.25
2022-11-30T15:59:07.111Z,39.65
2022-11-30T16:02:14.636Z,39.10
2022-11-30T16:04:56.574Z,40.78
2022-11-30T16:07:29.130Z,42.67
2022-11-30T16:10:07.341Z,43.67
2022-11-30T16:12:33.925Z,42.40
2022-11-30T16:15:00.550Z,44.40
2022-11-30T16:17:28.148Z,47.80
2022-11-30T16:19:54.603Z,44.55
2022-11-30T16:22:24.025Z,43.63
2022-11-30T16:24:51.284Z,42.15
2022-11-30T16:27:20.039Z,46.97
2022-11-30T16:29:52.183Z,40.00
2022-11-30T16:32:19.413Z,48.80
2022-11-30T16:34:47.824Z,45.20
2022-11-30T16:37:17.783Z,47.03
2022-11-30T16:39:48.008Z,46.00
2022-11-30T16:42:15.650Z,50.90
2022-11-30T16:44:42.038Z,44.92
2022-11-30T16:47:10.100Z,52.30
2022-11-30T16:49:36.746Z,49.20
2022-11-30T16:52:03.912Z,49.20
2022-11-30T16:54:30.593Z,54.95
2022-11-30T16:56:56.955Z,55.08
2022-11-30T16:59:23.342Z,52.75
2022-11-30T17:01:53.318Z,59.50
2022-11-30T17:04:22.926Z,60.22
2022-11-30T17:06:51.626Z,59.15
2022-11-30T17:09:20.866Z,60.05
2022-11-30T17:11:50.410Z,64.88
2022-11-30T17:14:17.555Z,60.63
2022-11-30T17:16:43.998Z,58.42
2022-11-30T17:19:10.479Z,59.63
2022-11-30T17:21:38.790Z,62.88
2022-11-30T17:24:06.330Z,61.95
2022-11-30T17:26:33.022Z,62.05
2022-11-30T17:28:59.766Z,66.93
2022-11-30T17:31:26.254Z,68.38
2022-11-30T17:33:52.713Z,67.72
2022-11-30T17:36:19.224Z,61.95
2022-11-30T17:38:45.818Z,63.88
2022-11-30T17:41:18.914Z,58.45
2022-11-30T17:43:46.570Z,61.50
2022-11-30T17:46:15.920Z,65.75
2022-11-30T17:48:43.648Z,63.33
2022-11-30T17:51:11.070Z,62.45
2022-11-30T17:53:39.131Z,61.75
2022-11-30T17:56:08.375Z,62.33
2022-11-30T17:58:43.499Z,57.92
2022-11-30T18:01:22.165Z,66.28
2022-11-30T18:03:48.972Z,60.65
2022-11-30T18:06:16.130Z,56.85
2022-11-30T18:08:43.356Z,58.45
2022-11-30T18:11:15.163Z,51.00
2022-11-30T18:13:41.685Z,54.35
2022-11-30T18:16:14.112Z,54.85
2022-11-30T18:18:45.927Z,54.38
2022-11-30T18:23:41.825Z,54.17
2022-11-30T18:26:12.218Z,51.78
2022-11-30T18:28:39.148Z,56.55
2022-11-30T18:31:06.676Z,59.13
2022-11-30T18:33:34.637Z,54.85
2022-11-30T18:36:02.184Z,60.03
2022-11-30T18:38:32.892Z,58.03
2022-11-30T18:41:04.225Z,51.60
2022-11-30T18:43:31.702Z,51.13
2022-11-30T18:46:18.388Z,47.03
2022-11-30T18:48:50.363Z,48.47
2022-11-30T18:51:18.158Z,45.55
2022-11-30T18:53:45.397Z,49.60
2022-11-30T18:56:17.492Z,45.17
2022-11-30T18:58:44.812Z,47.72
2022-11-30T19:01:18.098Z,48.83
2022-11-30T19:03:50.870Z,49.58
2022-11-30T19:06:17.353Z,50.28
2022-11-30T19:08:43.725Z,50.47
2022-11-30T19:11:10.423Z,46.13
2022-11-30T19:13:37.482Z,54.22
2022-11-30T19:16:09.889Z,63.88
2022-11-30T19:18:36.490Z,48.35
2022-11-30T19:21:08.086Z,46.70
2022-11-30T19:23:35.693Z,48.88
2022-11-30T19:26:02.873Z,51.53
2022-11-30T19:28:30.528Z,50.50
2022-11-30T19:30:58.542Z,51.35
2022-11-30T19:33:26.185Z,46.10
2022-11-30T19:35:52.666Z,50.78
2022-11-30T19:38:19.166Z,53.80
2022-11-30T19:40:45.736Z,57.70
2022-11-30T19:43:12.261Z,50.63
2022-11-30T19:45:38.695Z,56.25
2022-11-30T19:48:05.717Z,55.72
2022-11-30T19:50:32.327Z,56.88
2022-11-30T19:52:58.969Z,55.85
2022-11-30T19:55:25.529Z,56.28
2022-11-30T19:57:52.007Z,57.17
2022-11-30T20:00:19.073Z,63.75
2022-11-30T20:02:47.294Z,58.55
2022-11-30T20:05:13.805Z,63.45
2022-11-30T20:07:40.823Z,65.53
2022-11-30T20:10:07.830Z,61.85
2022-11-30T20:12:34.216Z,66.57
2022-11-30T20:15:00.632Z,63.42
2022-11-30T20:17:27.157Z,68.40
2022-11-30T20:19:53.594Z,69.00
2022-11-30T20:22:20.125Z,77.70
2022-11-30T20:24:46.961Z,71.60
2022-11-30T20:27:13.780Z,76.43
2022-11-30T20:29:40.280Z,70.70
2022-11-30T20:32:06.694Z,76.13
2022-11-30T20:34:38.626Z,74.03
2022-11-30T20:37:07.482Z,76.80
2022-11-30T20:39:33.967Z,71.60
2022-11-30T20:42:00.362Z,78.88
2022-11-30T20:44:26.797Z,71.68
2022-11-30T20:46:53.163Z,76.85
2022-11-30T20:49:21.364Z,78.03
2022-11-30T20:51:48.425Z,81.85
2022-11-30T20:54:16.562Z,80.20
2022-11-30T20:56:43.270Z,78.18
2022-11-30T20:59:15.299Z,77.35
2022-11-30T21:01:43.238Z,76.80
2022-11-30T21:04:10.195Z,81.20
2022-11-30T21:06:36.696Z,75.43
2022-11-30T21:09:04.130Z,79.80
2022-11-30T21:11:30.963Z,80.68
2022-11-30T21:13:58.010Z,79.93
2022-11-30T21:16:28.491Z,78.95
2022-11-30T21:18:56.760Z,83.82
2022-11-30T21:21:25.007Z,86.07
2022-11-30T21:23:52.341Z,74.45
2022-11-30T21:26:27.833Z,77.53
2022-11-30T21:28:58.194Z,79.68
2022-11-30T21:31:24.740Z,81.00
2022-11-30T21:33:53.458Z,83.18
2022-11-30T21:36:21.999Z,83.28
2022-11-30T21:38:55.362Z,82.05
2022-11-30T21:41:24.654Z,82.40
2022-11-30T21:43:51.193Z,81.68
2022-11-30T21:46:19.977Z,81.38
2022-11-30T21:48:49.186Z,83.43
2022-11-30T21:51:21.586Z,87.57
2022-11-30T21:53:53.648Z,80.50
2022-11-30T21:56:23.418Z,86.47
2022-11-30T21:58:51.091Z,76.78
2022-11-30T22:01:20.885Z,86.25
2022-11-30T22:03:47.930Z,90.88
2022-11-30T22:06:17.253Z,75.65
2022-11-30T22:08:44.498Z,82.90
2022-11-30T22:11:13.082Z,86.43
2022-11-30T22:13:40.114Z,80.80
2022-11-30T22:16:11.098Z,82.70
2022-11-30T22:18:38.319Z,82.38
2022-11-30T22:21:12.037Z,87.55
2022-11-30T22:26:10.191Z,82.15
2022-11-30T22:28:36.659Z,80.15
2022-11-30T22:31:08.083Z,83.95
2022-11-30T22:33:35.972Z,78.72
2022-11-30T22:36:05.198Z,85.93
2022-11-30T22:38:32.048Z,81.53
2022-11-30T22:41:10.427Z,82.55
2022-11-30T22:43:36.802Z,87.78
2022-11-30T22:46:11.738Z,84.40
2022-11-30T22:48:38.850Z,81.70
2022-11-30T22:51:10.586Z,83.35
2022-11-30T22:53:37.893Z,81.88
2022-11-30T22:56:12.034Z,73.93
2022-11-30T22:58:39.388Z,81.65
2022-11-30T23:01:12.404Z,90.22
2022-11-30T23:03:40.543Z,80.70
2022-11-30T23:06:11.376Z,80.15
2022-11-30T23:08:38.247Z,78.70
2022-11-30T23:11:08.565Z,80.57
2022-11-30T23:13:35.341Z,80.93
2022-11-30T23:16:02.399Z,77.85
2022-11-30T23:18:30.621Z,79.22
2022-11-30T23:21:03.895Z,78.70
2022-11-30T23:23:30.419Z,82.13
2022-11-30T23:25:56.796Z,81.25
2022-11-30T23:28:23.234Z,76.43
2022-11-30T23:30:49.638Z,81.20
2022-11-30T23:33:16.517Z,75.60
2022-11-30T23:35:43.972Z,76.75
2022-11-30T23:38:11.024Z,75.88
2022-11-30T23:40:37.451Z,77.28
2022-11-30T23:43:03.831Z,79.30
2022-11-30T23:45:30.238Z,72.95
2022-11-30T23:47:56.641Z,84.18
2022-11-30T23:50:23.071Z,71.25
2022-11-30T23:52:49.488Z,73.43
2022-11-30T23:55:16.036Z,78.65
2022-11-30T23:57:42.408Z,71.40
